createdAt,value
2023-01-09T00:01:34.182Z,8.02
2023-01-09T00:11:37.141Z,7.78
2023-01-09T00:21:41.836Z,7.89
2023-01-09T00:31:44.939Z,7.97
2023-01-09T00:41:51.645Z,7.89
2023-01-09T00:51:56.424Z,7.90
2023-01-09T01:02:01.382Z,7.96
2023-01-09T01:12:07.497Z,8.04
2023-01-09T01:22:12.045Z,7.87
2023-01-09T01:32:15.235Z,7.86
2023-01-09T01:42:19.690Z,8.03
2023-01-09T01:52:23.611Z,7.94
2023-01-09T02:02:32.337Z,7.99
2023-01-09T02:12:35.376Z,8.16
2023-01-09T02:22:53.297Z,8.01
2023-01-09T02:33:28.808Z,8.03
2023-01-09T02:43:33.578Z,8.02
2023-01-09T02:54:01.621Z,7.73
2023-01-09T03:04:16.228Z,7.75
2023-01-09T03:14:23.505Z,7.72
2023-01-09T03:24:27.965Z,7.56
2023-01-09T03:34:31.045Z,7.49
2023-01-09T03:44:35.536Z,7.42
2023-01-09T03:54:39.499Z,7.37
2023-01-09T04:04:43.764Z,7.39
2023-01-09T04:14:46.690Z,7.38
2023-01-09T04:24:51.105Z,7.23
2023-01-09T04:34:54.362Z,7.24
2023-01-09T04:44:58.598Z,7.12
2023-01-09T04:55:01.767Z,7.21
2023-01-09T05:05:09.029Z,7.26
2023-01-09T05:15:14.349Z,7.06
2023-01-09T05:25:18.785Z,7.17
2023-01-09T05:35:21.685Z,7.02
2023-01-09T05:45:28.407Z,7.04
2023-01-09T05:55:31.115Z,7.10
2023-01-09T06:05:35.457Z,7.03
2023-01-09T06:15:38.514Z,7.10
2023-01-09T06:25:43.335Z,7.11
2023-01-09T06:35:46.291Z,7.08
2023-01-09T06:45:50.912Z,7.19
2023-01-09T06:55:54.645Z,7.18
2023-01-09T07:05:59.175Z,7.23
2023-01-09T07:16:03.620Z,7.26
2023-01-09T07:26:08.171Z,7.22
2023-01-09T07:36:12.509Z,7.17
2023-01-09T07:46:16.954Z,7.25
2023-01-09T21:22:55.339Z,6.93
2023-01-09T21:33:00.526Z,6.66
2023-01-09T21:43:21.411Z,6.53
2023-01-09T21:53:25.841Z,6.21
2023-01-09T22:03:29.844Z,6.38
2023-01-09T22:13:34.203Z,6.38
2023-01-09T22:23:37.187Z,6.44
2023-01-09T22:33:41.748Z,6.50
2023-01-09T22:43:45.097Z,6.33
2023-01-09T22:53:49.853Z,6.76
2023-01-09T23:03:52.850Z,6.48
2023-01-09T23:13:57.274Z,6.59
2023-01-09T23:24:00.437Z,6.58
2023-01-09T23:34:08.104Z,6.46
2023-01-09T23:44:11.071Z,6.49
2023-01-09T23:54:16.431Z,6.56
